createdAt,value
2018-01-21T11:40:00.622Z,0.20
2018-01-21T11:42:27.282Z,0.20
2018-01-21T11:44:53.935Z,0.20
2018-01-21T11:47:20.571Z,5.75
2018-01-21T11:52:09.479Z,6.97
2018-01-21T11:54:36.126Z,1.50
2018-01-21T11:57:02.780Z,1.83
2018-01-21T11:59:29.538Z,1.50
2018-01-21T12:01:56.281Z,2.10
2018-01-21T12:04:23.010Z,2.60
2018-01-21T12:06:49.652Z,2.95
2018-01-21T12:09:16.321Z,2.90
2018-01-21T12:11:42.986Z,6.47
2018-01-21T12:14:09.786Z,12.80
2018-01-21T12:16:36.724Z,6.70
2018-01-21T12:19:03.442Z,12.82
2018-01-21T12:21:30.884Z,3.60
2018-01-21T12:23:57.554Z,6.80
2018-01-21T12:26:24.203Z,6.25
2018-01-21T12:28:52.462Z,23.08
2018-01-21T12:31:19.738Z,4.53
2018-01-21T12:33:48.523Z,4.35
2018-01-21T12:36:16.086Z,4.50
2018-01-21T12:38:42.787Z,6.10
2018-01-21T12:41:09.466Z,5.25
2018-01-21T12:43:36.345Z,12.10
2018-01-21T12:46:03.254Z,10.00
2018-01-21T12:48:32.157Z,7.00
2018-01-21T12:50:58.978Z,8.70
2018-01-21T12:53:25.860Z,8.73
2018-01-21T12:55:53.059Z,5.05
2018-01-21T12:58:19.736Z,4.90
2018-01-21T13:00:47.149Z,11.65
2018-01-21T13:03:14.356Z,7.05
2018-01-21T13:05:42.016Z,9.55
2018-01-21T13:08:08.948Z,25.08
2018-01-21T13:10:35.685Z,9.00
2018-01-21T13:13:04.066Z,7.47
2018-01-21T13:15:31.874Z,5.18
2018-01-21T13:18:01.148Z,11.57
2018-01-21T13:20:30.877Z,6.57
2018-01-21T13:22:59.819Z,7.60
2018-01-21T13:25:28.023Z,6.35
2018-01-21T13:27:55.984Z,4.43
2018-01-21T13:30:23.544Z,4.90
2018-01-21T13:32:51.400Z,8.50
2018-01-21T13:35:19.999Z,5.35
2018-01-21T13:37:48.132Z,3.80
2018-01-21T13:40:16.862Z,4.22
2018-01-21T13:42:44.666Z,3.95
2018-01-21T13:45:12.393Z,3.30
2018-01-21T13:47:41.624Z,11.88
2018-01-21T13:50:08.301Z,5.40
2018-01-21T13:52:35.085Z,4.55
2018-01-21T13:55:01.733Z,5.47
2018-01-21T13:57:28.452Z,11.85
2018-01-21T13:59:55.109Z,5.40
2018-01-21T14:02:21.833Z,5.30
2018-01-21T14:04:48.573Z,14.05
2018-01-21T14:07:15.246Z,7.32
2018-01-21T14:09:41.891Z,22.30
2018-01-21T14:12:08.584Z,10.32
2018-01-21T14:14:35.228Z,8.43
2018-01-21T14:17:01.903Z,13.02
2018-01-21T14:19:28.573Z,7.30
2018-01-21T14:21:55.418Z,9.40
2018-01-21T14:24:22.208Z,9.20
2018-01-21T14:26:48.865Z,14.38
2018-01-21T14:29:15.536Z,14.10
2018-01-21T14:31:42.191Z,7.70
2018-01-21T14:34:08.843Z,6.95
2018-01-21T14:36:35.599Z,14.15
2018-01-21T14:39:02.282Z,9.50
2018-01-21T14:41:28.980Z,7.12
2018-01-21T14:43:55.652Z,7.35
2018-01-21T14:46:22.303Z,10.00
2018-01-21T14:48:48.978Z,8.85
2018-01-21T14:51:15.642Z,10.50
2018-01-21T14:53:42.385Z,10.55
2018-01-21T14:56:09.050Z,9.65
2018-01-21T14:58:35.867Z,22.87
2018-01-21T15:01:02.539Z,12.30
2018-01-21T15:03:29.225Z,10.13
2018-01-21T15:05:55.988Z,9.07
2018-01-21T15:08:22.663Z,37.30
2018-01-21T15:10:49.366Z,13.90
2018-01-21T15:13:16.104Z,8.82
2018-01-21T15:15:42.778Z,8.80
2018-01-21T15:18:09.419Z,8.10
2018-01-21T15:20:36.090Z,8.25
2018-01-21T15:23:02.740Z,23.17
2018-01-21T15:25:29.391Z,7.05
2018-01-21T15:27:56.148Z,12.77
2018-01-21T15:30:22.835Z,10.00
2018-01-21T15:32:49.628Z,11.07
2018-01-21T15:35:16.286Z,9.98
2018-01-21T15:37:43.029Z,8.20
2018-01-21T15:40:09.700Z,8.32
2018-01-21T15:42:36.372Z,13.45
2018-01-21T15:45:03.058Z,10.20
2018-01-21T15:47:29.735Z,10.60
2018-01-21T15:49:56.398Z,9.05
2018-01-21T15:52:23.111Z,9.25
2018-01-21T15:54:49.760Z,9.00
2018-01-21T15:57:16.431Z,8.57
2018-01-21T15:59:43.169Z,8.45
2018-01-21T16:02:09.832Z,9.30
2018-01-21T16:04:36.471Z,8.98
2018-01-21T16:07:03.192Z,8.80
2018-01-21T16:09:29.863Z,9.00
2018-01-21T16:11:56.547Z,10.27
2018-01-21T16:14:23.314Z,9.98
2018-01-21T16:16:49.971Z,9.65
2018-01-21T16:19:16.638Z,9.65
2018-01-21T16:21:43.320Z,9.35
2018-01-21T16:24:09.963Z,9.45
2018-01-21T16:26:36.638Z,9.90
2018-01-21T16:29:03.361Z,9.48
2018-01-21T16:31:30.020Z,8.70
2018-01-21T16:33:56.663Z,14.07
2018-01-21T16:36:27.054Z,12.35
2018-01-21T16:38:53.810Z,15.80
2018-01-21T16:41:20.472Z,12.90
2018-01-21T16:43:47.124Z,16.17
2018-01-21T16:46:13.772Z,21.60
2018-01-21T16:48:40.561Z,13.10
2018-01-21T16:51:07.226Z,13.02
2018-01-21T16:53:33.908Z,16.45
2018-01-21T16:56:00.684Z,12.25
2018-01-21T16:58:27.361Z,14.27
2018-01-21T17:00:54.056Z,12.95
2018-01-21T17:03:20.715Z,12.77
2018-01-21T17:05:47.440Z,13.82
2018-01-21T17:08:14.104Z,13.10
2018-01-21T17:10:40.838Z,14.05
2018-01-21T17:13:07.523Z,12.45
2018-01-21T17:15:34.193Z,13.20
2018-01-21T17:18:00.883Z,12.80
2018-01-21T17:20:27.527Z,11.52
2018-01-21T17:22:54.209Z,13.25
2018-01-21T17:25:20.852Z,14.85
2018-01-21T17:27:47.522Z,13.07
2018-01-21T17:30:14.198Z,17.33
2018-01-21T17:32:40.870Z,14.15
2018-01-21T17:35:07.626Z,18.62
2018-01-21T17:37:34.373Z,14.15
2018-01-21T17:40:01.107Z,15.27
2018-01-21T17:42:27.751Z,14.02
2018-01-21T17:44:54.485Z,11.70
2018-01-21T17:47:21.237Z,14.65
2018-01-21T17:49:47.895Z,16.95
2018-01-21T17:52:14.609Z,17.15
2018-01-21T17:54:41.275Z,14.77
2018-01-21T17:57:07.958Z,18.52
2018-01-21T17:59:34.640Z,16.85
2018-01-21T18:02:01.310Z,14.95
2018-01-21T18:04:28.004Z,18.15
2018-01-21T18:06:54.678Z,16.10
2018-01-21T18:09:21.343Z,18.35
2018-01-21T18:11:47.999Z,20.05
2018-01-21T18:14:14.770Z,21.87
2018-01-21T18:16:41.434Z,14.23
2018-01-21T18:19:08.110Z,17.90
2018-01-21T18:21:34.780Z,16.23
2018-01-21T18:24:01.451Z,15.68
2018-01-21T18:26:28.184Z,19.98
2018-01-21T18:28:54.930Z,15.73
2018-01-21T18:31:21.616Z,16.15
2018-01-21T18:33:48.292Z,17.90
2018-01-21T18:36:14.975Z,25.37
2018-01-21T18:38:41.637Z,20.80
2018-01-21T18:41:08.314Z,19.58
2018-01-21T18:43:34.984Z,17.20
2018-01-21T18:46:01.648Z,18.30
2018-01-21T18:48:28.310Z,15.10
2018-01-21T18:50:54.985Z,16.27
2018-01-21T18:53:21.650Z,18.45
2018-01-21T18:55:48.311Z,17.52
2018-01-21T18:58:14.964Z,18.02
2018-01-21T19:00:41.837Z,17.40
2018-01-21T19:03:08.626Z,19.08
2018-01-21T19:05:35.312Z,17.77
2018-01-21T19:08:02.074Z,22.20
2018-01-21T19:10:28.738Z,18.60
2018-01-21T19:12:55.440Z,19.85
2018-01-21T19:15:22.128Z,18.48
2018-01-21T19:17:48.822Z,18.10
2018-01-21T19:20:15.578Z,20.65
2018-01-21T19:22:42.245Z,22.37
2018-01-21T19:25:08.909Z,18.45
2018-01-21T19:27:35.583Z,19.50
2018-01-21T19:30:02.250Z,19.55
2018-01-21T19:32:28.912Z,17.12
2018-01-21T19:34:55.609Z,19.20
2018-01-21T19:37:22.266Z,18.75
2018-01-21T19:39:50.759Z,16.92
2018-01-21T19:42:20.028Z,19.23
2018-01-21T19:44:46.693Z,18.70
2018-01-21T19:47:13.365Z,18.70
2018-01-21T19:49:40.031Z,17.33
2018-01-21T19:52:06.674Z,19.80
2018-01-21T19:54:33.331Z,19.00
2018-01-21T19:56:59.984Z,18.30
2018-01-21T19:59:26.648Z,19.08
2018-01-21T20:01:53.446Z,17.20
2018-01-21T20:04:20.188Z,19.80
2018-01-21T20:06:46.840Z,19.92
2018-01-21T20:09:13.499Z,20.85
2018-01-21T20:11:40.151Z,17.75
2018-01-21T20:14:06.833Z,17.58
2018-01-21T20:16:33.581Z,18.50
2018-01-21T20:19:00.243Z,18.77
2018-01-21T20:21:26.909Z,20.73
2018-01-21T20:23:53.594Z,22.00
2018-01-21T20:26:20.339Z,21.10
2018-01-21T20:28:47.018Z,22.58
2018-01-21T20:31:13.719Z,20.20
2018-01-21T20:33:40.482Z,20.73
2018-01-21T20:36:07.226Z,23.62
2018-01-21T20:38:33.898Z,21.40
2018-01-21T20:41:00.606Z,21.27
2018-01-21T20:43:27.251Z,25.52
2018-01-21T20:45:53.971Z,22.05
2018-01-21T20:48:20.615Z,20.83
2018-01-21T20:50:47.354Z,20.92
2018-01-21T20:53:19.755Z,21.52
2018-01-21T20:55:46.411Z,22.60
2018-01-21T20:58:13.121Z,19.70
2018-01-21T21:00:39.806Z,21.70
2018-01-21T21:03:06.469Z,19.35
2018-01-21T21:05:33.229Z,21.25
2018-01-21T21:07:59.973Z,22.27
2018-01-21T21:10:26.638Z,22.65
2018-01-21T21:12:53.455Z,21.55
2018-01-21T21:15:20.208Z,20.42
2018-01-21T21:17:46.936Z,21.58
2018-01-21T21:20:13.625Z,21.23
2018-01-21T21:22:40.330Z,20.95
2018-01-21T21:25:06.979Z,20.77
2018-01-21T21:27:33.642Z,22.20
2018-01-21T21:30:00.295Z,21.00
2018-01-21T21:32:26.978Z,22.02
2018-01-21T21:34:53.664Z,22.00
2018-01-21T21:37:20.318Z,22.02
2018-01-21T21:39:46.972Z,21.55
2018-01-21T21:42:13.841Z,22.05
2018-01-21T21:44:40.594Z,21.92
2018-01-21T21:47:07.322Z,22.33
2018-01-21T21:49:34.015Z,21.02
2018-01-21T21:52:00.675Z,21.65
2018-01-21T21:54:27.338Z,20.42
2018-01-21T21:56:54.188Z,22.92
2018-01-21T21:59:20.849Z,22.40
2018-01-21T22:01:47.509Z,21.15
2018-01-21T22:04:14.178Z,22.40
2018-01-21T22:06:40.844Z,21.05
2018-01-21T22:09:07.585Z,21.40
2018-01-21T22:11:34.328Z,20.62
2018-01-21T22:14:01.068Z,20.48
2018-01-21T22:16:27.724Z,20.48
2018-01-21T22:18:54.388Z,22.30
2018-01-21T22:21:21.054Z,20.35
2018-01-21T22:23:47.722Z,20.23
2018-01-21T22:26:14.478Z,21.37
2018-01-21T22:28:41.149Z,19.50
2018-01-21T22:31:07.794Z,20.77
2018-01-21T22:33:34.487Z,19.42
2018-01-21T22:36:01.136Z,21.25
2018-01-21T22:38:27.871Z,23.95
2018-01-21T22:40:54.520Z,22.65
2018-01-21T22:43:21.261Z,26.08
2018-01-21T22:45:47.945Z,21.90
2018-01-21T22:48:14.613Z,22.95
2018-01-21T22:50:41.259Z,21.67
2018-01-21T22:53:08.005Z,23.50
2018-01-21T22:55:34.660Z,25.85
2018-01-21T22:58:01.326Z,21.55
2018-01-21T23:00:28.025Z,26.00
2018-01-21T23:02:54.675Z,27.67
2018-01-21T23:05:21.339Z,26.02
2018-01-21T23:07:48.002Z,22.62
2018-01-21T23:10:14.668Z,23.60
2018-01-21T23:12:41.450Z,23.98
2018-01-21T23:15:08.119Z,21.80
2018-01-21T23:17:34.771Z,25.40
2018-01-21T23:20:01.436Z,23.15
2018-01-21T23:22:28.183Z,26.37
2018-01-21T23:24:54.846Z,25.83
2018-01-21T23:27:21.529Z,26.92
2018-01-21T23:29:48.218Z,25.55
2018-01-21T23:32:14.965Z,26.65
2018-01-21T23:34:41.689Z,24.75
2018-01-21T23:37:08.335Z,22.55
2018-01-21T23:39:35.018Z,23.73
2018-01-21T23:42:01.676Z,22.80
2018-01-21T23:44:28.343Z,28.90
2018-01-21T23:46:55.094Z,22.77
2018-01-21T23:49:21.762Z,27.10
2018-01-21T23:51:48.580Z,23.30
2018-01-21T23:54:15.250Z,23.80
2018-01-21T23:56:41.912Z,24.00
2018-01-21T23:59:08.554Z,24.52
